Time;durP1;ratioP1;P1;durP2;ratioP2;P2;SDS_P1;SDS_P2;PMS_P1;PMS_P2;Temp;Humidity;BMP_temperature;BMP_pressure;BME280_temperature;BME280_humidity;BME280_pressure;Samples;Min_cycle;Max_cycle;Signal;HPM_P1;HPM_P2
2023/02/19 00:01:27;;;;;;;2.70;1.80;;;10.30;68.80;;;;;;5055526;28;20103;-73
2023/02/19 00:03:55;;;;;;;3.30;1.60;;;10.30;69.00;;;;;;5055592;28;20024;-73
2023/02/19 00:06:23;;;;;;;3.28;1.65;;;10.30;69.00;;;;;;5055559;28;20531;-73
2023/02/19 00:08:49;;;;;;;2.38;1.70;;;10.30;69.20;;;;;;5055506;28;20032;-73
2023/02/19 00:11:17;;;;;;;2.63;1.85;;;10.30;69.50;;;;;;5055336;28;20021;-72
2023/02/19 00:13:45;;;;;;;3.40;1.75;;;10.20;69.70;;;;;;5055388;28;20017;-73
2023/02/19 00:16:22;;;;;;;2.88;2.03;;;10.20;69.80;;;;;;5054686;28;20033;-73
2023/02/19 00:18:48;;;;;;;2.85;2.00;;;10.30;69.80;;;;;;5055335;28;20045;-73
2023/02/19 00:21:14;;;;;;;3.05;1.92;;;10.20;69.80;;;;;;5055258;28;20473;-73
2023/02/19 00:23:40;;;;;;;4.25;2.20;;;10.20;69.90;;;;;;5055097;28;20501;-73
2023/02/19 00:26:11;;;;;;;4.82;1.90;;;10.20;69.80;;;;;;5055098;28;20029;-73
2023/02/19 00:28:37;;;;;;;3.88;2.00;;;10.10;69.90;;;;;;5036983;28;20029;-73
2023/02/19 00:31:23;;;;;;;4.15;2.00;;;10.10;69.70;;;;;;5054985;28;20021;-73
2023/02/19 00:33:54;;;;;;;3.78;2.08;;;10.10;70.00;;;;;;5055124;28;20064;-73
2023/02/19 00:36:21;;;;;;;3.63;1.85;;;10.20;69.80;;;;;;5036919;28;20024;-74
2023/02/19 00:38:47;;;;;;;2.28;1.63;;;10.10;69.70;;;;;;5054977;28;20033;-73
2023/02/19 00:41:20;;;;;;;3.97;2.15;;;10.20;69.80;;;;;;5054948;28;20048;-73
2023/02/19 00:43:47;;;;;;;4.60;1.95;;;10.10;69.80;;;;;;5054922;28;20112;-73
2023/02/19 00:46:13;;;;;;;3.17;2.22;;;10.20;69.40;;;;;;5054453;28;20044;-73
2023/02/19 00:48:38;;;;;;;3.28;1.75;;;10.20;69.50;;;;;;5054752;28;20480;-72
2023/02/19 00:51:04;;;;;;;2.10;1.90;;;10.10;69.60;;;;;;5036266;28;20111;-73
2023/02/19 00:53:30;;;;;;;3.40;2.10;;;10.20;69.50;;;;;;5054685;28;20025;-73
2023/02/19 00:55:55;;;;;;;4.45;2.08;;;10.20;70.20;;;;;;5054637;28;20473;-73
2023/02/19 00:58:21;;;;;;;3.42;2.15;;;10.20;69.20;;;;;;5054830;28;20029;-73
2023/02/19 01:00:46;;;;;;;2.63;1.90;;;10.20;68.80;;;;;;5054385;28;20083;-73
2023/02/19 01:03:12;;;;;;;2.88;1.98;;;10.20;68.90;;;;;;5054186;28;20037;-73
2023/02/19 01:05:37;;;;;;;2.80;1.80;;;10.20;68.50;;;;;;5054176;28;20028;-73
2023/02/19 01:08:03;;;;;;;2.88;1.95;;;10.10;68.50;;;;;;5054151;28;20028;-74
2023/02/19 01:10:28;;;;;;;2.65;1.77;;;10.10;68.40;;;;;;5054184;28;20482;-73
2023/02/19 01:12:54;;;;;;;2.22;1.70;;;10.20;68.30;;;;;;5054224;28;20059;-73
2023/02/19 01:15:19;;;;;;;2.60;1.80;;;10.20;68.00;;;;;;5053982;28;20032;-73
2023/02/19 01:17:45;;;;;;;2.40;1.52;;;10.10;68.30;;;;;;5054105;28;20025;-73
2023/02/19 01:20:10;;;;;;;2.90;1.65;;;10.20;67.00;;;;;;5054033;28;20033;-73
2023/02/19 01:22:36;;;;;;;2.55;1.70;;;10.20;66.40;;;;;;5054203;28;20474;-73
2023/02/19 01:25:01;;;;;;;2.30;1.35;;;10.20;66.70;;;;;;5054129;28;20029;-73
2023/02/19 01:27:27;;;;;;;2.10;1.40;;;10.20;66.20;;;;;;5035776;28;20038;-73
2023/02/19 01:29:52;;;;;;;3.92;1.42;;;10.20;65.70;;;;;;5053734;28;20028;-73
2023/02/19 01:32:18;;;;;;;2.30;1.50;;;10.20;65.60;;;;;;5053799;28;20587;-72
2023/02/19 01:34:44;;;;;;;3.28;1.58;;;10.20;65.50;;;;;;5053850;28;20029;-73
2023/02/19 01:37:10;;;;;;;2.78;1.50;;;10.30;65.30;;;;;;5053817;28;20021;-74
2023/02/19 01:39:37;;;;;;;3.38;1.52;;;10.30;65.40;;;;;;5053827;28;20017;-73
2023/02/19 01:42:04;;;;;;;2.05;1.73;;;10.30;64.50;;;;;;5053678;28;20496;-73
2023/02/19 01:44:30;;;;;;;1.52;1.35;;;10.30;64.40;;;;;;5053804;28;20029;-73
2023/02/19 01:46:58;;;;;;;2.03;1.30;;;10.30;64.70;;;;;;5053712;28;20028;-73
2023/02/19 01:49:27;;;;;;;1.42;1.27;;;10.30;64.30;;;;;;5053635;28;20103;-73
2023/02/19 01:52:04;;;;;;;3.28;1.38;;;10.30;64.10;;;;;;5053566;28;20025;-73
2023/02/19 01:54:35;;;;;;;2.75;1.30;;;10.30;64.10;;;;;;5053651;28;20017;-73
2023/02/19 01:57:06;;;;;;;2.60;1.33;;;10.30;63.80;;;;;;5053539;28;20057;-73
2023/02/19 01:59:33;;;;;;;1.98;1.38;;;10.30;64.20;;;;;;5053468;28;20377;-73
2023/02/19 02:01:59;;;;;;;1.70;1.20;;;10.20;64.50;;;;;;5053228;28;20036;-73
2023/02/19 02:04:26;;;;;;;1.73;1.30;;;10.20;64.30;;;;;;5053316;28;20020;-73
2023/02/19 02:06:54;;;;;;;2.85;1.90;;;10.20;64.40;;;;;;5053341;28;20044;-72
2023/02/19 02:12:07;;;;;;;2.70;1.52;;;10.20;64.70;;;;;;5053284;28;20492;-73
2023/02/19 02:14:36;;;;;;;1.92;1.50;;;10.20;64.80;;;;;;5035154;28;20029;-73
2023/02/19 02:17:25;;;;;;;2.45;1.30;;;10.20;64.60;;;;;;5053136;28;20072;-74
2023/02/19 02:20:20;;;;;;;1.70;1.30;;;10.20;64.90;;;;;;5053424;28;20472;-73
2023/02/19 02:23:06;;;;;;;1.43;1.17;;;10.20;64.80;;;;;;5034992;28;20037;-73
2023/02/19 02:25:53;;;;;;;2.10;1.23;;;10.10;65.00;;;;;;5035151;28;20028;-73
2023/02/19 02:28:51;;;;;;;1.13;0.98;;;10.10;65.00;;;;;;5052989;28;20025;-73
2023/02/19 02:31:46;;;;;;;3.55;1.25;;;10.10;65.20;;;;;;5052741;28;20091;-73
2023/02/19 02:34:20;;;;;;;2.30;1.23;;;10.10;65.00;;;;;;5052706;28;20040;-73
2023/02/19 02:36:51;;;;;;;2.42;1.20;;;10.10;65.00;;;;;;5052929;28;20104;-73
2023/02/19 02:39:20;;;;;;;1.98;1.05;;;10.20;65.00;;;;;;5052606;28;20029;-73
2023/02/19 02:44:39;;;;;;;1.60;1.20;;;10.10;65.20;;;;;;5052876;28;20089;-73
2023/02/19 02:47:39;;;;;;;1.70;1.13;;;10.10;65.20;;;;;;5052773;28;20025;-73
2023/02/19 02:50:04;;;;;;;1.65;1.20;;;10.10;65.20;;;;;;5052604;28;20044;-73
2023/02/19 02:55:15;;;;;;;3.60;1.40;;;10.10;65.50;;;;;;5052709;28;20064;-73
2023/02/19 02:57:41;;;;;;;1.98;1.30;;;10.00;66.00;;;;;;5034651;28;20472;-73
2023/02/19 03:00:07;;;;;;;1.33;1.23;;;10.00;66.60;;;;;;5052576;28;20025;-73
2023/02/19 03:02:34;;;;;;;1.42;0.98;;;9.90;67.00;;;;;;5052379;28;20048;-73
2023/02/19 03:08:11;;;;;;;1.55;1.20;;;10.00;66.90;;;;;;5052948;28;20462;-73
2023/02/19 03:10:51;;;;;;;2.25;1.40;;;9.90;67.60;;;;;;5052391;28;20466;-73
2023/02/19 03:19:20;;;;;;;2.50;1.40;;;9.80;68.80;;;;;;5052494;28;20070;-73
2023/02/19 03:21:55;;;;;;;2.05;0.80;;;9.70;69.30;;;;;;5052349;28;20060;-72
2023/02/19 03:27:19;;;;;;;5.60;2.17;;;9.60;70.20;;;;;;5052355;28;20000;-72
2023/02/19 03:29:47;;;;;;;2.13;1.77;;;9.50;70.40;;;;;;5052324;28;20473;-73
2023/02/19 03:32:22;;;;;;;1.50;1.20;;;9.60;70.00;;;;;;5052339;28;20148;-74
2023/02/19 03:34:58;;;;;;;1.52;1.42;;;9.60;69.60;;;;;;5052371;28;20414;-73
2023/02/19 03:37:26;;;;;;;;;;;9.50;70.00;;;;;;5034921;28;20076;-73
2023/02/19 03:39:53;;;;;;;2.17;1.27;;;9.50;70.30;;;;;;5052128;28;19908;-72
2023/02/19 03:42:39;;;;;;;2.95;1.50;;;9.50;70.40;;;;;;5052179;28;20037;-73
2023/02/19 03:45:40;;;;;;;3.55;1.55;;;9.50;70.50;;;;;;5052279;28;20060;-72
2023/02/19 03:48:05;;;;;;;1.52;1.15;;;9.50;70.60;;;;;;5052028;28;20473;-73
2023/02/19 03:50:56;;;;;;;1.60;1.48;;;9.40;70.70;;;;;;5052116;28;20104;-73
2023/02/19 03:53:41;;;;;;;1.02;0.90;;;9.40;71.00;;;;;;5055757;28;20033;-73
2023/02/19 03:56:13;;;;;;;2.13;1.40;;;9.40;71.10;;;;;;5055780;28;20025;-73
2023/02/19 03:58:55;;;;;;;1.30;1.20;;;9.40;71.00;;;;;;5056020;28;20078;-74
2023/02/19 04:01:31;;;;;;;1.40;1.30;;;9.40;71.10;;;;;;5055673;28;20021;-73
2023/02/19 04:04:15;;;;;;;1.40;1.30;;;9.40;70.90;;;;;;5055651;28;20040;-73
2023/02/19 04:06:43;;;;;;;2.25;1.10;;;9.50;71.00;;;;;;5055439;28;20036;-73
2023/02/19 04:09:11;;;;;;;1.45;1.00;;;9.40;70.90;;;;;;5055491;28;20033;-73
2023/02/19 04:11:38;;;;;;;1.10;1.00;;;9.50;70.50;;;;;;5055413;28;20067;-73
2023/02/19 04:14:06;;;;;;;1.13;1.00;;;9.50;70.50;;;;;;5055326;28;20503;-73
2023/02/19 04:16:34;;;;;;;1.05;0.95;;;9.50;70.50;;;;;;5055318;28;20071;-73
2023/02/19 04:19:09;;;;;;;0.88;0.88;;;9.40;70.50;;;;;;5055404;28;20025;-73
2023/02/19 04:21:37;;;;;;;1.35;1.10;;;9.50;70.70;;;;;;5055228;28;20041;-73
2023/02/19 04:24:13;;;;;;;2.72;0.98;;;9.50;70.70;;;;;;5055228;28;20032;-73
2023/02/19 04:26:40;;;;;;;1.52;0.70;;;9.40;70.70;;;;;;5055199;28;20013;-73
2023/02/19 04:29:05;;;;;;;0.65;0.63;;;9.50;70.90;;;;;;5055010;28;20028;-73
2023/02/19 04:31:34;;;;;;;2.10;1.23;;;9.40;71.00;;;;;;5054902;28;20045;-73
2023/02/19 04:34:00;;;;;;;0.90;0.88;;;9.40;71.20;;;;;;5054984;28;20028;-73
2023/02/19 04:36:26;;;;;;;0.90;0.70;;;9.40;71.40;;;;;;5055037;28;20536;-73
2023/02/19 04:38:51;;;;;;;2.95;1.10;;;9.40;72.10;;;;;;5055020;28;20213;-73
2023/02/19 04:41:17;;;;;;;0.80;0.80;;;9.40;71.70;;;;;;5054723;28;20025;-73
2023/02/19 04:43:42;;;;;;;1.55;1.00;;;9.40;72.30;;;;;;5054694;28;20532;-73
2023/02/19 04:46:08;;;;;;;1.00;0.90;;;9.40;72.30;;;;;;5054822;28;20017;-73
2023/02/19 04:48:33;;;;;;;1.58;1.05;;;9.40;72.30;;;;;;5054693;28;20029;-73
2023/02/19 04:51:03;;;;;;;1.20;1.02;;;9.40;72.10;;;;;;5054694;28;20025;-73
2023/02/19 04:53:28;;;;;;;0.98;0.82;;;9.40;72.10;;;;;;5054489;28;20028;-75
2023/02/19 04:55:54;;;;;;;1.45;1.10;;;9.40;72.10;;;;;;5054624;28;20033;-73
2023/02/19 04:58:20;;;;;;;1.05;0.98;;;9.40;72.00;;;;;;5054408;28;20048;-73
2023/02/19 05:00:45;;;;;;;1.85;0.80;;;9.50;72.00;;;;;;5036603;28;20363;-73
2023/02/19 05:03:11;;;;;;;1.55;0.90;;;9.50;71.80;;;;;;5054203;28;20040;-73
2023/02/19 05:05:36;;;;;;;1.35;1.20;;;9.50;71.50;;;;;;5054263;28;20470;-73
2023/02/19 05:08:02;;;;;;;0.73;0.73;;;9.50;71.50;;;;;;5054350;28;20025;-73
2023/02/19 05:10:27;;;;;;;1.20;0.80;;;9.50;72.00;;;;;;5054277;28;20474;-73
2023/02/19 05:12:54;;;;;;;0.80;0.80;;;9.50;71.90;;;;;;5053990;28;20025;-73
2023/02/19 05:15:19;;;;;;;0.82;0.82;;;9.50;72.10;;;;;;5054220;28;20048;-73
2023/02/19 05:17:45;;;;;;;2.88;1.25;;;9.40;72.20;;;;;;5054359;28;20032;-73
2023/02/19 05:20:10;;;;;;;2.03;1.33;;;9.40;72.20;;;;;;5054312;28;20532;-73
2023/02/19 05:22:36;;;;;;;1.48;1.02;;;9.40;72.20;;;;;;5054026;28;20033;-72
2023/02/19 05:25:02;;;;;;;1.65;1.10;;;9.40;72.40;;;;;;5054071;28;20033;-74
2023/02/19 05:27:29;;;;;;;1.00;0.90;;;9.40;72.50;;;;;;5054040;28;20469;-71
2023/02/19 05:29:55;;;;;;;1.38;0.75;;;9.50;72.60;;;;;;5053929;28;20028;-72
2023/02/19 05:32:20;;;;;;;1.38;1.00;;;9.50;72.70;;;;;;5053647;28;20057;-72
2023/02/19 05:34:46;;;;;;;0.90;0.88;;;9.50;72.80;;;;;;5053882;28;20025;-73
2023/02/19 05:37:11;;;;;;;1.42;1.20;;;9.50;72.90;;;;;;5053810;28;20025;-74
2023/02/19 05:39:37;;;;;;;1.27;1.10;;;9.50;72.70;;;;;;5035896;28;20021;-72
2023/02/19 05:42:03;;;;;;;1.15;1.05;;;9.50;72.80;;;;;;5053730;28;20036;-74
2023/02/19 05:44:28;;;;;;;1.25;0.85;;;9.50;72.80;;;;;;5053818;28;20018;-73
2023/02/19 05:46:54;;;;;;;1.15;0.90;;;9.50;72.90;;;;;;5053680;28;20060;-73
2023/02/19 05:49:19;;;;;;;0.95;0.90;;;9.50;73.30;;;;;;5053632;28;20100;-73
2023/02/19 05:51:45;;;;;;;3.20;1.88;;;9.50;73.50;;;;;;5053627;28;20036;-74
2023/02/19 05:54:10;;;;;;;1.75;1.30;;;9.50;73.20;;;;;;5053485;28;20491;-73
2023/02/19 05:56:38;;;;;;;1.52;0.80;;;9.50;73.00;;;;;;5053452;28;20027;-72
2023/02/19 05:59:14;;;;;;;0.60;0.60;;;9.50;73.20;;;;;;5053436;28;20021;-73
2023/02/19 06:01:40;;;;;;;1.38;1.00;;;9.50;73.40;;;;;;5053274;28;20446;-72
2023/02/19 06:04:05;;;;;;;1.58;0.75;;;9.40;73.30;;;;;;5053310;28;20040;-72
2023/02/19 06:06:31;;;;;;;1.05;0.82;;;9.50;73.10;;;;;;5035388;28;20024;-72
2023/02/19 06:08:57;;;;;;;1.10;1.00;;;9.50;73.10;;;;;;5053313;28;20036;-72
2023/02/19 06:11:23;;;;;;;0.95;0.73;;;9.40;72.70;;;;;;5053211;28;20393;-73
2023/02/19 06:13:49;;;;;;;2.95;1.50;;;9.30;73.10;;;;;;5052789;28;20013;-72
2023/02/19 06:16:20;;;;;;;3.05;1.95;;;9.30;73.20;;;;;;5053032;28;20025;-73
2023/02/19 06:18:46;;;;;;;1.55;1.10;;;9.30;73.20;;;;;;5035423;28;20466;-73
2023/02/19 06:21:13;;;;;;;1.38;1.15;;;9.30;73.60;;;;;;5053106;28;20036;-73
2023/02/19 06:23:39;;;;;;;1.10;1.02;;;9.20;74.20;;;;;;5052947;28;20033;-73
2023/02/19 06:26:06;;;;;;;1.75;1.27;;;9.10;74.70;;;;;;5053001;28;20017;-72
2023/02/19 06:28:31;;;;;;;2.20;1.13;;;9.10;74.80;;;;;;5052748;28;20090;-73
2023/02/19 06:30:57;;;;;;;1.30;1.10;;;9.10;75.20;;;;;;5052613;28;20059;-73
2023/02/19 06:33:23;;;;;;;1.77;1.40;;;9.00;75.70;;;;;;5052849;28;20057;-73
2023/02/19 06:35:49;;;;;;;2.28;1.55;;;9.00;76.00;;;;;;5053197;28;20531;-75
2023/02/19 06:38:14;;;;;;;2.20;1.67;;;9.00;76.50;;;;;;5053749;28;20029;-73
2023/02/19 06:40:40;;;;;;;7.70;3.92;;;8.90;76.70;;;;;;5053206;28;20029;-74
2023/02/19 06:43:05;;;;;;;6.53;3.72;;;8.90;77.20;;;;;;5052788;28;20033;-75
2023/02/19 06:45:31;;;;;;;4.70;2.47;;;8.90;77.30;;;;;;5052853;28;20366;-75
2023/02/19 06:47:56;;;;;;;4.05;2.00;;;8.90;76.90;;;;;;5052802;28;20029;-73
2023/02/19 06:50:22;;;;;;;1.23;0.95;;;8.80;77.30;;;;;;5052727;28;20029;-72
2023/02/19 06:52:47;;;;;;;2.85;1.73;;;8.80;78.20;;;;;;5052762;28;20036;-72
2023/02/19 06:55:13;;;;;;;1.55;1.10;;;8.70;78.80;;;;;;5052680;28;20028;-73
2023/02/19 06:57:38;;;;;;;1.20;0.90;;;8.70;79.40;;;;;;5052696;28;20029;-73
2023/02/19 07:00:04;;;;;;;0.75;0.75;;;8.70;79.90;;;;;;5052682;28;20021;-73
2023/02/19 07:02:30;;;;;;;1.95;0.90;;;8.60;80.70;;;;;;5052923;28;20048;-72
2023/02/19 07:04:56;;;;;;;1.48;1.05;;;8.60;81.70;;;;;;5052555;28;20043;-72
2023/02/19 07:07:21;;;;;;;0.60;0.60;;;8.50;82.10;;;;;;5052527;28;20450;-72
2023/02/19 07:09:47;;;;;;;1.70;1.40;;;8.50;82.40;;;;;;5052533;28;20025;-72
2023/02/19 07:12:12;;;;;;;1.10;1.00;;;8.50;83.00;;;;;;5052451;28;20096;-73
2023/02/19 07:14:38;;;;;;;1.65;1.05;;;8.50;83.30;;;;;;5052581;28;20103;-73
2023/02/19 07:17:03;;;;;;;2.20;1.38;;;8.50;83.30;;;;;;5034627;28;20384;-73
2023/02/19 07:19:29;;;;;;;0.65;0.65;;;8.40;83.60;;;;;;5052418;28;20017;-73
2023/02/19 07:21:54;;;;;;;2.85;1.25;;;8.40;83.80;;;;;;5052444;28;20079;-78
2023/02/19 07:24:21;;;;;;;1.58;1.02;;;8.30;84.50;;;;;;5052405;28;20108;-74
2023/02/19 07:26:46;;;;;;;2.33;0.75;;;8.30;84.70;;;;;;5053591;28;20017;-73
2023/02/19 07:29:12;;;;;;;0.98;0.70;;;8.30;84.30;;;;;;5056280;28;20491;-73
2023/02/19 07:31:37;;;;;;;0.98;0.70;;;8.30;84.60;;;;;;5056415;28;20053;-73
2023/02/19 07:34:03;;;;;;;2.92;1.63;;;8.20;84.70;;;;;;5056282;28;20025;-73
2023/02/19 07:36:29;;;;;;;2.25;1.60;;;8.20;84.80;;;;;;5056134;28;20110;-73
2023/02/19 07:38:58;;;;;;;0.70;0.70;;;8.20;84.90;;;;;;5056222;28;20075;-73
2023/02/19 07:41:25;;;;;;;1.83;0.57;;;8.20;84.90;;;;;;5056366;28;20073;-73
2023/02/19 07:43:52;;;;;;;0.95;0.75;;;8.30;85.00;;;;;;5055559;28;20037;-73
2023/02/19 07:46:18;;;;;;;1.13;0.68;;;8.20;84.90;;;;;;5055938;28;20021;-72
2023/02/19 07:48:43;;;;;;;1.10;0.60;;;8.20;84.80;;;;;;5055856;28;20036;-77
2023/02/19 07:51:17;;;;;;;0.63;0.55;;;8.20;84.80;;;;;;5055818;28;20028;-74
2023/02/19 07:53:44;;;;;;;0.77;0.60;;;8.20;84.60;;;;;;5055835;28;20048;-72
2023/02/19 07:56:10;;;;;;;2.53;1.73;;;8.20;84.30;;;;;;5055806;28;20021;-73
2023/02/19 07:58:36;;;;;;;0.98;0.80;;;8.20;84.10;;;;;;5055793;28;20075;-75
2023/02/19 08:04:07;;;;;;;0.40;0.40;;;8.20;83.30;;;;;;5055909;28;20047;-73
2023/02/19 08:06:32;;;;;;;0.30;0.15;;;8.20;82.80;;;;;;5055543;28;20021;-73
2023/02/19 08:08:58;;;;;;;0.47;0.40;;;8.30;82.00;;;;;;5037625;28;20029;-72
2023/02/19 08:14:07;;;;;;;2.72;0.50;;;8.50;81.20;;;;;;5055518;28;20036;-72
2023/02/19 08:16:33;;;;;;;0.98;0.50;;;8.50;80.30;;;;;;5055369;28;20345;-79
2023/02/19 08:18:58;;;;;;;1.05;0.63;;;8.60;79.40;;;;;;5055308;28;20084;-76
2023/02/19 08:21:24;;;;;;;1.20;0.82;;;8.60;79.90;;;;;;5037395;28;20048;-76
2023/02/19 08:23:50;;;;;;;1.25;0.90;;;8.70;79.00;;;;;;5055280;28;20044;-75
2023/02/19 08:26:16;;;;;;;1.05;0.77;;;8.80;77.10;;;;;;5055226;28;20477;-76
2023/02/19 08:28:42;;;;;;;1.02;0.50;;;8.90;76.50;;;;;;5020625;28;20033;-78
2023/02/19 08:31:09;;;;;;;2.65;1.35;;;8.90;76.10;;;;;;5054975;28;20469;-76
2023/02/19 08:33:35;;;;;;;1.38;0.50;;;8.80;77.20;;;;;;5017315;28;20038;-77
2023/02/19 08:36:03;;;;;;;1.85;1.10;;;8.90;75.80;;;;;;5017338;28;20414;-77
2023/02/19 08:38:29;;;;;;;1.13;0.47;;;8.90;75.40;;;;;;5016936;28;20056;-76
2023/02/19 08:40:54;;;;;;;2.25;0.60;;;9.00;75.70;;;;;;5017394;28;20513;-76
2023/02/19 08:43:21;;;;;;;1.90;0.70;;;9.20;74.50;;;;;;5015970;28;20048;-76
2023/02/19 08:45:47;;;;;;;1.30;0.70;;;9.30;74.00;;;;;;5016130;28;20057;-78
2023/02/19 08:48:13;;;;;;;0.38;0.38;;;9.50;73.10;;;;;;5029358;28;20647;-78
2023/02/19 08:50:39;;;;;;;1.27;0.60;;;9.40;72.20;;;;;;5016975;28;20057;-72
2023/02/19 08:53:05;;;;;;;0.57;0.40;;;9.20;72.20;;;;;;5034615;28;20028;-73
2023/02/19 08:55:32;;;;;;;1.08;0.52;;;9.00;70.90;;;;;;5034644;28;20033;-73
2023/02/19 08:57:57;;;;;;;3.00;1.60;;;9.00;70.70;;;;;;5034733;28;20096;-73
2023/02/19 09:00:23;;;;;;;1.85;0.63;;;9.00;70.40;;;;;;5016600;28;20053;-73
2023/02/19 09:02:49;;;;;;;0.70;0.60;;;9.00;69.60;;;;;;5033940;28;20060;-73
2023/02/19 09:05:15;;;;;;;1.50;0.60;;;9.10;69.50;;;;;;5034431;28;20053;-73
2023/02/19 09:07:42;;;;;;;0.95;0.63;;;9.10;69.70;;;;;;5034402;28;20025;-73
2023/02/19 09:10:09;;;;;;;1.85;0.80;;;9.00;70.60;;;;;;5034404;28;20091;-73
2023/02/19 09:12:37;;;;;;;2.38;0.60;;;9.00;70.90;;;;;;5033973;28;20462;-73
2023/02/19 09:15:03;;;;;;;2.45;0.60;;;9.00;70.00;;;;;;5034160;28;20030;-74
2023/02/19 09:17:29;;;;;;;1.25;0.77;;;8.80;70.20;;;;;;5034417;28;20063;-77
2023/02/19 09:19:54;;;;;;;2.15;0.90;;;8.80;71.00;;;;;;5034045;28;20026;-73
2023/02/19 09:22:20;;;;;;;1.00;0.80;;;8.80;71.10;;;;;;5033841;28;20033;-73
2023/02/19 09:24:45;;;;;;;3.22;1.60;;;8.80;70.70;;;;;;5033918;28;20497;-73
2023/02/19 09:27:18;;;;;;;1.63;0.93;;;8.80;71.60;;;;;;5033068;28;20059;-74
2023/02/19 09:29:45;;;;;;;1.63;0.85;;;8.70;72.70;;;;;;5033870;28;20432;-73
2023/02/19 09:32:11;;;;;;;3.45;1.30;;;8.80;70.70;;;;;;5042422;28;20488;-75
2023/02/19 09:34:37;;;;;;;4.88;2.90;;;8.90;70.60;;;;;;5054120;28;20111;-73
2023/02/19 09:37:07;;;;;;;1.75;1.02;;;8.90;70.90;;;;;;5053811;28;20021;-73
2023/02/19 09:39:34;;;;;;;3.67;0.82;;;8.90;70.60;;;;;;5053263;28;20029;-74
2023/02/19 09:42:14;;;;;;;2.53;1.00;;;9.00;70.10;;;;;;5047004;28;20478;-73
2023/02/19 09:44:43;;;;;;;4.95;0.90;;;8.80;70.40;;;;;;5048768;28;20028;-74
2023/02/19 09:47:31;;;;;;;2.30;1.23;;;8.80;70.70;;;;;;5052037;28;20051;-73
2023/02/19 09:50:04;;;;;;;2.05;1.13;;;8.90;71.10;;;;;;5051252;28;20096;-73
2023/02/19 09:52:51;;;;;;;3.17;1.02;;;8.90;69.90;;;;;;5034312;28;20424;-74
2023/02/19 09:55:41;;;;;;;1.00;0.63;;;8.80;70.70;;;;;;5052145;28;20021;-73
2023/02/19 09:58:32;;;;;;;3.40;0.73;;;8.80;70.70;;;;;;5032983;28;20084;-74
2023/02/19 10:01:00;;;;;;;1.10;0.60;;;8.90;71.10;;;;;;5051996;28;20021;-73
2023/02/19 10:03:29;;;;;;;0.88;0.60;;;8.90;70.90;;;;;;5051804;28;20037;-73
2023/02/19 10:05:57;;;;;;;1.20;0.75;;;8.80;71.00;;;;;;5051828;28;20431;-74
2023/02/19 10:08:23;;;;;;;2.40;1.20;;;8.90;71.00;;;;;;5052870;28;20033;-73
2023/02/19 10:10:49;;;;;;;2.55;0.80;;;9.00;70.80;;;;;;5053016;28;20021;-74
2023/02/19 10:13:26;;;;;;;1.27;0.82;;;8.80;71.10;;;;;;5053169;28;20029;-74
2023/02/19 10:15:55;;;;;;;1.60;1.10;;;8.70;71.70;;;;;;5053226;28;20092;-74
2023/02/19 10:18:24;;;;;;;3.22;1.55;;;8.70;72.00;;;;;;5034192;28;21105;-74
2023/02/19 10:20:51;;;;;;;5.13;1.98;;;8.80;72.00;;;;;;5049550;28;20100;-73
2023/02/19 10:23:18;;;;;;;6.43;2.05;;;8.90;71.80;;;;;;5051583;28;20033;-73
2023/02/19 10:25:50;;;;;;;8.93;3.42;;;8.90;71.50;;;;;;5051664;28;20017;-75
2023/02/19 10:28:22;;;;;;;3.92;2.00;;;8.90;71.90;;;;;;5051940;28;20454;-73
2023/02/19 10:30:53;;;;;;;1.75;1.00;;;8.90;72.00;;;;;;5049164;28;20021;-74
2023/02/19 10:33:19;;;;;;;4.97;1.25;;;8.90;71.80;;;;;;5051595;28;20123;-74
2023/02/19 10:35:54;;;;;;;2.70;1.48;;;8.90;72.20;;;;;;5052354;28;20047;-75
2023/02/19 10:38:27;;;;;;;2.55;1.50;;;8.90;72.50;;;;;;5051773;28;20076;-74
2023/02/19 10:40:59;;;;;;;2.22;1.02;;;8.90;73.20;;;;;;5051651;28;20025;-72
2023/02/19 10:43:32;;;;;;;1.95;1.27;;;8.90;73.70;;;;;;5048788;28;20037;-72
2023/02/19 10:46:02;;;;;;;1.80;1.20;;;9.00;73.40;;;;;;5051422;28;20485;-73
2023/02/19 10:48:31;;;;;;;1.30;1.10;;;9.00;74.00;;;;;;5051458;28;20036;-73
2023/02/19 10:51:05;;;;;;;5.00;1.30;;;9.10;73.90;;;;;;5051309;28;20052;-72
2023/02/19 10:53:39;;;;;;;2.00;1.23;;;9.20;73.10;;;;;;5049866;28;20032;-75
2023/02/19 10:56:28;;;;;;;1.67;0.90;;;9.20;71.70;;;;;;5049099;28;20374;-74
2023/02/19 10:58:54;;;;;;;0.70;0.70;;;9.20;71.50;;;;;;5032443;28;20432;-74
2023/02/19 11:01:22;;;;;;;2.42;1.00;;;9.20;71.10;;;;;;5035868;28;20033;-73
2023/02/19 11:03:50;;;;;;;1.77;0.98;;;9.20;71.30;;;;;;5056071;28;20033;-74
2023/02/19 11:06:19;;;;;;;0.77;0.77;;;9.10;72.90;;;;;;5056969;28;20017;-73
2023/02/19 11:08:57;;;;;;;2.17;1.40;;;9.00;72.70;;;;;;5051654;28;20493;-72
2023/02/19 11:11:37;;;;;;;2.80;0.80;;;9.00;72.80;;;;;;5056482;28;20513;-74
2023/02/19 11:14:15;;;;;;;2.63;1.40;;;9.10;72.60;;;;;;5056610;28;20025;-76
2023/02/19 11:16:47;;;;;;;2.65;1.23;;;9.10;73.60;;;;;;5056671;28;20462;-75
2023/02/19 11:19:33;;;;;;;3.72;1.50;;;9.10;73.60;;;;;;5038786;28;20037;-73
2023/02/19 11:22:00;;;;;;;7.18;4.07;;;9.20;72.50;;;;;;5056275;28;20025;-76
2023/02/19 11:24:35;;;;;;;2.00;1.40;;;9.30;72.40;;;;;;5056616;28;20028;-77
2023/02/19 11:27:04;;;;;;;3.08;1.30;;;9.40;71.00;;;;;;5038513;28;20021;-75
2023/02/19 11:29:33;;;;;;;2.15;0.73;;;9.40;70.10;;;;;;5057000;28;20025;-74
2023/02/19 11:32:19;;;;;;;1.17;0.93;;;9.30;70.20;;;;;;5071176;28;20044;-76
2023/02/19 11:34:45;;;;;;;;;;;9.40;69.60;;;;;;5041962;28;20603;-77
2023/02/19 11:37:14;;;;;;;2.22;1.70;;;9.40;69.50;;;;;;5056244;28;19999;-80
2023/02/19 11:39:46;;;;;;;4.15;1.70;;;9.40;69.50;;;;;;5056236;28;20017;-77
2023/02/19 11:42:17;;;;;;;1.73;1.13;;;9.30;70.20;;;;;;5055903;28;20025;-78
2023/02/19 11:45:10;;;;;;;2.45;1.38;;;9.30;68.20;;;;;;5056246;28;20029;-79
2023/02/19 11:47:47;;;;;;;3.20;1.20;;;9.10;68.90;;;;;;5055960;28;20025;-77
2023/02/19 11:50:18;;;;;;;2.45;1.92;;;9.10;69.50;;;;;;5055942;28;20144;-75
2023/02/19 11:53:21;;;;;;;5.28;3.20;;;9.10;69.90;;;;;;5055664;28;20036;-74
2023/02/19 11:56:07;;;;;;;1.70;1.00;;;9.10;70.80;;;;;;5055691;28;20043;-74
2023/02/19 11:58:48;;;;;;;1.85;1.33;;;9.10;70.50;;;;;;5055907;28;20025;-74
2023/02/19 12:01:22;;;;;;;1.65;1.00;;;9.20;70.60;;;;;;5055755;28;20032;-75
2023/02/19 12:03:47;;;;;;;2.55;1.50;;;9.20;70.50;;;;;;5055399;28;20040;-73
2023/02/19 12:06:36;;;;;;;2.05;1.13;;;9.30;70.40;;;;;;5055711;28;20044;-74
2023/02/19 12:09:17;;;;;;;2.92;1.60;;;9.30;70.30;;;;;;5055441;28;20024;-73
2023/02/19 12:12:16;;;;;;;1.48;1.30;;;9.40;70.40;;;;;;5054984;28;20104;-74
2023/02/19 12:14:55;;;;;;;1.30;0.90;;;9.40;69.90;;;;;;5053910;28;20017;-79
2023/02/19 12:17:52;;;;;;;1.80;1.20;;;9.50;69.70;;;;;;5052893;28;20037;-79
2023/02/19 12:20:42;;;;;;;1.30;1.20;;;9.60;69.40;;;;;;5052190;28;20111;-74
2023/02/19 12:23:26;;;;;;;4.03;0.95;;;9.70;69.00;;;;;;5053761;28;20090;-75
2023/02/19 12:26:20;;;;;;;2.15;1.17;;;9.60;69.00;;;;;;5055174;28;20032;-74
2023/02/19 12:29:08;;;;;;;4.28;1.83;;;9.60;68.40;;;;;;5049638;28;20039;-74
2023/02/19 12:31:54;;;;;;;1.98;1.30;;;9.60;68.90;;;;;;5054962;28;20482;-75
2023/02/19 12:34:32;;;;;;;1.85;1.05;;;9.60;68.10;;;;;;5055198;28;20025;-75
2023/02/19 12:37:28;;;;;;;1.90;0.80;;;9.60;68.00;;;;;;5055022;28;20559;-73
2023/02/19 12:40:15;;;;;;;2.20;1.38;;;9.70;68.40;;;;;;5054682;28;20616;-74
2023/02/19 12:42:59;;;;;;;1.17;1.00;;;9.80;67.60;;;;;;5036859;28;20481;-75
2023/02/19 12:45:48;;;;;;;2.08;1.30;;;9.70;66.90;;;;;;5054988;28;20061;-75
2023/02/19 12:48:34;;;;;;;1.50;1.20;;;9.70;67.00;;;;;;5054973;28;20025;-74
2023/02/19 12:51:22;;;;;;;2.08;1.00;;;9.70;67.50;;;;;;5054960;28;20021;-75
2023/02/19 12:53:56;;;;;;;3.53;1.30;;;9.70;67.40;;;;;;5054695;28;20021;-77
2023/02/19 12:56:37;;;;;;;2.25;1.20;;;9.80;67.50;;;;;;5054717;28;20029;-74
2023/02/19 12:59:15;;;;;;;7.43;4.18;;;9.90;67.80;;;;;;5054459;28;20111;-74
2023/02/19 13:02:01;;;;;;;5.93;2.85;;;9.90;68.00;;;;;;5054872;28;20496;-76
2023/02/19 13:04:40;;;;;;;3.00;1.45;;;10.00;67.20;;;;;;5054576;28;20082;-76
2023/02/19 13:07:27;;;;;;;1.10;1.00;;;10.00;66.80;;;;;;5054679;28;20466;-75
2023/02/19 13:09:59;;;;;;;1.45;0.60;;;9.90;66.90;;;;;;5054540;28;20025;-76
2023/02/19 13:12:29;;;;;;;1.45;0.90;;;9.70;67.80;;;;;;5054572;28;20028;-75
2023/02/19 13:14:59;;;;;;;1.88;0.82;;;9.50;69.20;;;;;;5054153;28;20087;-75
2023/02/19 13:17:37;;;;;;;1.50;0.90;;;9.50;70.20;;;;;;5054274;28;20033;-77
2023/02/19 13:20:26;;;;;;;1.15;0.80;;;9.60;70.00;;;;;;5054302;28;20113;-76
2023/02/19 13:26:36;;;;;;;3.08;0.73;;;9.40;73.60;;;;;;5049451;28;20458;-76
2023/02/19 13:29:27;;;;;;;2.85;1.10;;;9.00;76.90;;;;;;5036517;28;20032;-74
2023/02/19 13:32:23;;;;;;;2.13;1.40;;;8.60;77.80;;;;;;5053971;28;20061;-76
2023/02/19 13:35:25;;;;;;;2.47;1.20;;;8.60;78.50;;;;;;5054056;28;20029;-75
2023/02/19 13:37:53;;;;;;;4.45;1.23;;;8.70;78.30;;;;;;5036194;28;20489;-76
2023/02/19 13:40:33;;;;;;;3.22;1.10;;;8.60;75.80;;;;;;5053916;28;20025;-76
2023/02/19 13:43:01;;;;;;;5.55;1.60;;;8.60;75.50;;;;;;5053903;28;20029;-76
2023/02/19 13:45:41;;;;;;;4.57;1.75;;;8.60;76.40;;;;;;5053787;28;20063;-76